createdAt,value
2023-04-18T00:00:21.945Z,49.55
2023-04-18T00:02:52.560Z,49.55
2023-04-18T00:05:24.207Z,49.50
2023-04-18T00:07:55.149Z,49.50
2023-04-18T00:10:31.784Z,49.50
2023-04-18T00:13:04.859Z,49.49
2023-04-18T00:15:34.983Z,49.49
2023-04-18T00:18:12.388Z,49.40
2023-04-18T00:20:41.911Z,49.44
2023-04-18T00:23:13.453Z,49.48
2023-04-18T00:25:48.228Z,49.52
2023-04-18T00:28:16.217Z,49.50
2023-04-18T00:30:49.864Z,49.42
2023-04-18T00:33:26.481Z,49.48
2023-04-18T00:36:03.613Z,49.45
2023-04-18T00:38:39.876Z,49.45
2023-04-18T00:41:18.436Z,49.41
2023-04-18T00:43:49.097Z,49.46
2023-04-18T00:46:20.014Z,49.40
2023-04-18T00:48:48.967Z,49.42
2023-04-18T00:51:23.656Z,49.40
2023-04-18T00:53:55.482Z,49.43
2023-04-18T00:56:23.144Z,49.45
2023-04-18T00:58:53.706Z,49.45
2023-04-18T01:01:27.461Z,49.42
2023-04-18T01:03:58.158Z,49.41
2023-04-18T01:06:26.677Z,49.44
2023-04-18T01:08:58.778Z,49.44
2023-04-18T01:11:26.398Z,49.42
2023-04-18T01:14:08.036Z,49.40
2023-04-18T01:16:42.468Z,49.41
2023-04-18T01:19:12.536Z,49.41
2023-04-18T01:21:45.800Z,49.35
2023-04-18T01:24:23.506Z,49.38
2023-04-18T01:27:00.035Z,49.32
2023-04-18T01:29:30.332Z,49.40
2023-04-18T01:32:10.400Z,49.37
2023-04-18T01:34:44.176Z,49.33
2023-04-18T01:37:18.917Z,49.32
2023-04-18T01:39:51.655Z,49.33
2023-04-18T01:42:27.682Z,49.42
2023-04-18T01:44:57.902Z,49.40
2023-04-18T01:47:25.772Z,49.32
2023-04-18T01:49:56.496Z,49.36
2023-04-18T01:52:27.245Z,49.38
2023-04-18T01:54:58.508Z,49.42
2023-04-18T01:57:29.586Z,49.36
2023-04-18T02:00:07.251Z,49.38
2023-04-18T02:02:35.942Z,49.38
2023-04-18T02:05:14.210Z,49.38
2023-04-18T02:07:47.149Z,49.40
2023-04-18T02:10:23.470Z,49.38
2023-04-18T02:13:00.478Z,49.44
2023-04-18T02:15:35.296Z,49.43
2023-04-18T02:18:16.632Z,49.39
2023-04-18T02:20:50.937Z,49.53
2023-04-18T02:23:27.201Z,49.42
2023-04-18T02:26:06.723Z,49.50
2023-04-18T02:28:39.031Z,49.41
2023-04-18T02:31:13.033Z,49.38
2023-04-18T02:33:49.349Z,49.35
2023-04-18T02:36:25.782Z,49.41
2023-04-18T02:39:00.221Z,49.34
2023-04-18T02:41:34.476Z,49.34
2023-04-18T02:44:11.248Z,49.32
2023-04-18T02:46:42.753Z,49.34
2023-04-18T02:49:13.257Z,49.37
2023-04-18T02:51:41.065Z,49.35
2023-04-18T02:54:15.397Z,49.39
2023-04-18T02:56:46.174Z,49.35
2023-04-18T02:59:18.576Z,49.34
2023-04-18T03:01:49.536Z,49.37
2023-04-18T03:04:17.191Z,49.39
2023-04-18T03:06:47.686Z,49.33
2023-04-18T03:09:22.045Z,49.38
2023-04-18T03:11:50.059Z,49.38
2023-04-18T03:14:20.487Z,49.37
2023-04-18T03:16:55.584Z,49.36
2023-04-18T03:19:26.995Z,49.37
2023-04-18T03:22:03.504Z,49.37
2023-04-18T03:24:37.603Z,49.40
2023-04-18T03:27:14.106Z,49.41
2023-04-18T03:29:51.453Z,49.42
2023-04-18T03:32:27.772Z,49.44
2023-04-18T03:35:04.727Z,49.43
2023-04-18T03:37:45.072Z,49.53
2023-04-18T03:40:22.025Z,49.45
2023-04-18T03:42:59.093Z,49.49
2023-04-18T03:45:32.542Z,49.41
2023-04-18T03:48:00.528Z,49.45
2023-04-18T03:50:31.558Z,49.43
2023-04-18T03:53:08.987Z,49.57
2023-04-18T03:55:45.416Z,49.54
2023-04-18T03:58:18.490Z,49.52
2023-04-18T04:00:52.013Z,49.57
2023-04-18T04:03:28.746Z,49.49
2023-04-18T04:06:02.471Z,49.53
2023-04-18T04:08:39.180Z,49.58
2023-04-18T04:11:10.426Z,49.64
2023-04-18T04:13:46.303Z,49.70
2023-04-18T04:16:20.447Z,49.70
2023-04-18T04:18:51.924Z,49.70
2023-04-18T04:21:31.293Z,49.70
2023-04-18T04:24:02.101Z,49.67
2023-04-18T04:26:35.507Z,49.65
2023-04-18T04:29:05.294Z,49.70
2023-04-18T04:31:44.742Z,49.64
2023-04-18T04:34:19.402Z,49.70
2023-04-18T04:36:53.618Z,49.65
2023-04-18T04:39:29.035Z,49.59
2023-04-18T04:42:04.169Z,49.62
2023-04-18T04:44:43.237Z,49.55
2023-04-18T04:47:21.297Z,49.47
2023-04-18T04:49:52.347Z,49.39
2023-04-18T04:52:25.968Z,49.34
2023-04-18T04:55:04.311Z,49.29
2023-04-18T04:57:35.232Z,49.33
2023-04-18T05:00:09.596Z,49.34
2023-04-18T05:02:37.193Z,49.32
2023-04-18T05:05:08.740Z,49.36
2023-04-18T05:07:41.974Z,49.35
2023-04-18T05:10:10.014Z,49.30
2023-04-18T05:12:40.639Z,49.36
2023-04-18T05:15:16.920Z,49.42
2023-04-18T05:17:47.486Z,49.37
2023-04-18T05:20:18.429Z,49.40
2023-04-18T05:22:49.340Z,49.42
2023-04-18T05:25:20.180Z,49.46
2023-04-18T05:27:53.931Z,49.42
2023-04-18T05:30:22.383Z,49.42
2023-04-18T05:32:52.316Z,49.33
2023-04-18T05:35:30.267Z,49.39
2023-04-18T05:38:07.854Z,49.31
2023-04-18T05:40:36.474Z,49.04
2023-04-18T05:43:07.250Z,49.03
2023-04-18T05:45:37.200Z,48.98
2023-04-18T05:48:18.045Z,49.07
2023-04-18T05:50:48.674Z,49.27
2023-04-18T05:53:16.656Z,49.28
2023-04-18T05:55:47.887Z,49.35
2023-04-18T05:58:18.662Z,49.22
2023-04-18T06:00:52.540Z,48.86
2023-04-18T06:03:24.137Z,48.90
2023-04-18T06:05:55.866Z,48.83
2023-04-18T06:08:31.829Z,48.92
2023-04-18T06:11:02.027Z,49.05
2023-04-18T06:13:32.187Z,49.02
2023-04-18T06:16:04.204Z,49.34
2023-04-18T06:18:38.063Z,49.48
2023-04-18T06:21:05.740Z,49.50
2023-04-18T06:23:39.465Z,49.58
2023-04-18T06:26:10.215Z,49.67
2023-04-18T06:28:43.653Z,49.56
2023-04-18T06:31:15.942Z,49.37
2023-04-18T06:33:57.430Z,49.48
2023-04-18T06:36:25.053Z,49.59
2023-04-18T06:38:58.881Z,49.54
2023-04-18T06:41:36.091Z,49.59
2023-04-18T06:44:10.512Z,49.64
2023-04-18T06:46:43.334Z,49.70
2023-04-18T06:49:14.922Z,49.75
2023-04-18T06:51:50.430Z,49.83
2023-04-18T06:54:27.675Z,49.68
2023-04-18T06:56:58.039Z,49.54
2023-04-18T06:59:26.291Z,49.73
2023-04-18T07:01:59.379Z,49.85
2023-04-18T07:04:37.382Z,49.86
2023-04-18T07:07:12.174Z,49.62
2023-04-18T07:09:42.340Z,49.49
2023-04-18T07:12:15.352Z,49.42
2023-04-18T07:14:44.628Z,49.60
2023-04-18T07:17:18.698Z,49.53
2023-04-18T07:20:00.637Z,49.66
2023-04-18T07:22:37.074Z,50.14
2023-04-18T07:25:14.001Z,50.36
2023-04-18T07:27:43.811Z,50.71
2023-04-18T07:30:14.673Z,50.71
2023-04-18T07:32:42.313Z,50.60
2023-04-18T07:35:13.350Z,50.71
2023-04-18T07:37:40.849Z,50.50
2023-04-18T07:40:10.219Z,50.59
2023-04-18T07:42:44.344Z,50.52
2023-04-18T07:45:18.163Z,50.40
2023-04-18T07:47:52.366Z,50.56
2023-04-18T07:50:22.952Z,50.50
2023-04-18T07:52:53.204Z,50.50
2023-04-18T07:55:26.692Z,50.53
2023-04-18T07:57:55.647Z,50.55
2023-04-18T08:00:29.712Z,50.41
2023-04-18T08:02:57.867Z,50.65
2023-04-18T08:05:25.549Z,50.63
2023-04-18T08:07:58.380Z,50.66
2023-04-18T08:10:26.025Z,50.74
2023-04-18T08:12:57.988Z,50.82
2023-04-18T08:15:34.511Z,50.66
2023-04-18T08:18:05.338Z,50.77
2023-04-18T08:20:39.657Z,50.66
2023-04-18T08:23:14.178Z,50.83
2023-04-18T08:25:44.873Z,50.95
2023-04-18T08:28:15.251Z,50.95
2023-04-18T08:30:49.552Z,50.96
2023-04-18T08:33:16.481Z,50.44
2023-04-18T08:35:52.088Z,50.41
2023-04-18T08:38:23.801Z,50.40
2023-04-18T08:40:57.044Z,50.43
2023-04-18T08:43:24.122Z,50.35
2023-04-18T08:45:55.003Z,50.30
2023-04-18T08:48:28.410Z,50.26
2023-04-18T08:51:06.643Z,50.22
2023-04-18T08:53:40.083Z,50.16
2023-04-18T08:56:15.620Z,50.12
2023-04-18T08:58:49.227Z,50.03
2023-04-18T09:01:24.730Z,49.98
2023-04-18T09:03:56.956Z,49.89
2023-04-18T09:06:24.356Z,49.84
2023-04-18T09:09:05.024Z,49.81
2023-04-18T09:11:37.575Z,49.76
2023-04-18T09:14:11.981Z,49.71
2023-04-18T09:16:48.693Z,49.66
2023-04-18T09:19:21.491Z,49.60
2023-04-18T09:22:03.263Z,48.89
2023-04-18T09:24:41.234Z,48.69
2023-04-18T09:27:16.988Z,49.05
2023-04-18T09:29:58.122Z,49.26
2023-04-18T09:32:42.720Z,49.57
2023-04-18T09:35:45.121Z,49.59
2023-04-18T09:38:15.504Z,49.69
2023-04-18T09:41:05.734Z,49.80
2023-04-18T09:43:36.185Z,49.77
2023-04-18T09:46:12.958Z,49.67
2023-04-18T09:48:43.305Z,49.64
2023-04-18T09:51:18.034Z,49.61
2023-04-18T09:53:47.930Z,49.63
2023-04-18T09:56:30.567Z,49.60
2023-04-18T09:59:15.704Z,49.63
2023-04-18T10:01:44.813Z,49.56
2023-04-18T10:04:18.913Z,49.69
2023-04-18T10:06:52.109Z,49.58
2023-04-18T10:09:21.863Z,49.55
2023-04-18T10:11:50.756Z,49.55
2023-04-18T10:14:23.330Z,49.50
2023-04-18T10:16:59.911Z,49.46
2023-04-18T10:19:38.078Z,49.38
2023-04-18T10:22:08.013Z,49.36
2023-04-18T10:24:56.104Z,49.35
2023-04-18T10:28:06.456Z,49.31
2023-04-18T10:30:52.981Z,49.20
2023-04-18T10:33:43.019Z,49.22
2023-04-18T10:36:19.733Z,49.18
2023-04-18T10:38:47.985Z,49.16
2023-04-18T10:41:25.830Z,49.03
2023-04-18T10:44:08.852Z,49.12
2023-04-18T10:46:43.817Z,49.12
2023-04-18T10:49:21.341Z,49.00
2023-04-18T10:51:55.473Z,48.95
2023-04-18T10:54:57.060Z,48.89
2023-04-18T10:57:37.651Z,48.73
2023-04-18T11:00:06.448Z,48.73
2023-04-18T11:02:34.454Z,48.74
2023-04-18T11:05:04.140Z,48.71
2023-04-18T11:07:44.468Z,48.76
2023-04-18T11:10:14.569Z,48.72
2023-04-18T11:12:44.705Z,48.63
2023-04-18T11:15:19.030Z,48.57
2023-04-18T11:18:06.134Z,48.52
2023-04-18T11:20:46.900Z,48.47
2023-04-18T11:23:19.399Z,48.42
2023-04-18T11:25:52.131Z,48.38
2023-04-18T11:28:22.932Z,48.48
2023-04-18T11:31:00.468Z,48.55
2023-04-18T11:33:33.817Z,48.70
2023-04-18T11:36:10.260Z,48.53
2023-04-18T11:38:43.523Z,48.45
2023-04-18T11:41:22.817Z,48.58
2023-04-18T11:43:58.944Z,48.59
2023-04-18T11:46:42.732Z,48.50
2023-04-18T11:49:31.599Z,48.51
2023-04-18T11:52:00.015Z,48.44
2023-04-18T11:54:46.901Z,48.39
2023-04-18T11:57:23.762Z,48.42
2023-04-18T12:00:02.812Z,48.38
2023-04-18T12:02:51.833Z,48.37
2023-04-18T12:05:32.859Z,48.37
2023-04-18T12:08:13.986Z,48.35
2023-04-18T12:10:48.215Z,48.33
2023-04-18T12:13:15.368Z,48.27
2023-04-18T12:15:47.435Z,48.24
2023-04-18T12:18:24.927Z,48.25
2023-04-18T12:20:57.657Z,48.20
2023-04-18T12:23:49.354Z,48.19
2023-04-18T12:26:21.404Z,48.16
2023-04-18T12:28:52.238Z,48.33
2023-04-18T12:31:27.645Z,48.14
2023-04-18T12:33:57.480Z,48.26
2023-04-18T12:36:28.516Z,48.38
2023-04-18T12:39:07.133Z,48.14
2023-04-18T12:41:34.579Z,48.07
2023-04-18T12:44:07.558Z,48.01
2023-04-18T12:46:37.636Z,47.98
2023-04-18T12:49:11.389Z,47.91
2023-04-18T12:51:41.232Z,47.96
2023-04-18T12:54:08.154Z,48.02
2023-04-18T12:56:35.162Z,48.18
2023-04-18T12:59:02.215Z,48.22
2023-04-18T13:01:31.726Z,48.23
2023-04-18T13:04:11.715Z,48.33
2023-04-18T13:06:39.830Z,48.24
2023-04-18T13:09:13.024Z,48.20
2023-04-18T13:11:44.378Z,48.25
2023-04-18T13:14:16.931Z,48.18
2023-04-18T13:16:49.223Z,48.17
2023-04-18T13:19:22.213Z,48.16
2023-04-18T13:21:50.498Z,48.18
2023-04-18T13:24:21.294Z,48.30
2023-04-18T13:26:51.185Z,48.43
2023-04-18T13:29:24.157Z,48.49
2023-04-18T13:32:02.544Z,48.66
2023-04-18T13:34:47.659Z,48.74
2023-04-18T13:37:20.535Z,48.73
2023-04-18T13:39:56.793Z,48.63
2023-04-18T13:42:29.802Z,48.21
2023-04-18T13:45:00.185Z,48.51
2023-04-18T13:47:27.667Z,48.49
2023-04-18T13:50:01.623Z,48.59
2023-04-18T13:52:34.835Z,48.63
2023-04-18T13:55:02.276Z,48.60
2023-04-18T13:57:35.584Z,48.53
2023-04-18T14:00:09.754Z,48.48
2023-04-18T14:02:40.984Z,48.43
2023-04-18T14:05:18.012Z,48.40
2023-04-18T14:07:52.635Z,48.41
2023-04-18T14:10:29.044Z,48.48
2023-04-18T14:13:01.095Z,48.44
2023-04-18T14:15:35.668Z,48.40
2023-04-18T14:18:14.934Z,48.52
2023-04-18T14:20:45.795Z,48.52
2023-04-18T14:23:23.200Z,48.39
2023-04-18T14:25:59.811Z,48.27
2023-04-18T14:28:33.989Z,48.18
2023-04-18T14:31:11.445Z,48.12
2023-04-18T14:33:48.863Z,48.04
2023-04-18T14:36:19.054Z,47.88
2023-04-18T14:38:57.557Z,47.92
2023-04-18T14:41:31.255Z,48.08
2023-04-18T14:44:01.413Z,48.09
2023-04-18T14:46:35.559Z,48.20
2023-04-18T14:49:09.048Z,48.32
2023-04-18T14:51:45.564Z,48.38
2023-04-18T14:54:16.276Z,48.42
2023-04-18T14:56:47.352Z,48.44
2023-04-18T14:59:23.385Z,48.46
2023-04-18T15:02:05.701Z,48.38
2023-04-18T15:04:38.941Z,48.54
2023-04-18T15:07:18.411Z,48.46
2023-04-18T15:09:51.931Z,48.36
2023-04-18T15:12:32.335Z,48.30
2023-04-18T15:15:06.383Z,48.24
2023-04-18T15:17:42.825Z,48.37
2023-04-18T15:20:16.247Z,48.35
2023-04-18T15:22:47.735Z,48.04
2023-04-18T15:25:29.847Z,48.23
2023-04-18T15:28:09.251Z,48.37
2023-04-18T15:30:39.239Z,48.31
2023-04-18T15:33:13.398Z,48.21
2023-04-18T15:35:45.902Z,48.20
2023-04-18T15:38:19.328Z,48.21
2023-04-18T15:40:49.182Z,48.26
2023-04-18T15:43:22.867Z,48.17
2023-04-18T15:45:56.432Z,48.27
2023-04-18T15:48:27.423Z,48.21
2023-04-18T15:51:00.055Z,48.33
2023-04-18T15:53:35.985Z,48.32
2023-04-18T15:56:09.043Z,48.42
2023-04-18T15:58:39.073Z,48.35
2023-04-18T16:01:18.112Z,48.37
2023-04-18T16:03:55.650Z,48.39
2023-04-18T16:06:28.562Z,48.36
2023-04-18T16:09:06.183Z,48.16
2023-04-18T16:11:33.603Z,48.16
2023-04-18T16:14:03.775Z,48.10
2023-04-18T16:16:39.719Z,48.11
2023-04-18T16:19:11.620Z,48.11
2023-04-18T16:21:40.970Z,48.12
2023-04-18T16:24:18.635Z,47.01
2023-04-18T16:26:49.543Z,47.74
2023-04-18T16:29:27.293Z,47.90
2023-04-18T16:32:02.266Z,47.99
2023-04-18T16:34:35.399Z,48.01
2023-04-18T16:37:05.229Z,48.01
2023-04-18T16:39:35.890Z,48.03
2023-04-18T16:42:03.608Z,48.13
2023-04-18T16:44:36.923Z,48.30
2023-04-18T16:47:07.875Z,48.57
2023-04-18T16:49:48.886Z,48.64
2023-04-18T16:52:19.797Z,48.80
2023-04-18T16:55:09.055Z,48.78
2023-04-18T16:57:42.471Z,48.87
2023-04-18T17:00:18.000Z,48.92
2023-04-18T17:02:52.873Z,48.98
2023-04-18T17:05:28.152Z,48.95
2023-04-18T17:08:09.091Z,48.99
2023-04-18T17:10:40.922Z,49.04
2023-04-18T17:13:19.863Z,49.42
2023-04-18T17:15:54.230Z,49.50
2023-04-18T17:18:30.734Z,49.74
2023-04-18T17:21:04.819Z,49.78
2023-04-18T17:23:42.632Z,49.73
2023-04-18T17:26:16.750Z,49.62
2023-04-18T17:28:46.993Z,49.63
2023-04-18T17:31:17.542Z,48.90
2023-04-18T17:33:54.139Z,48.48
2023-04-18T17:36:30.316Z,48.30
2023-04-18T17:39:05.488Z,48.38
2023-04-18T17:41:39.464Z,48.38
2023-04-18T17:44:12.512Z,48.39
2023-04-18T17:46:43.086Z,48.29
2023-04-18T17:49:14.677Z,48.14
2023-04-18T17:51:51.930Z,48.11
2023-04-18T17:54:26.247Z,48.02
2023-04-18T17:57:00.493Z,47.86
2023-04-18T17:59:33.830Z,47.62
2023-04-18T18:02:04.920Z,47.39
2023-04-18T18:04:40.201Z,47.79
2023-04-18T18:07:14.024Z,48.07
2023-04-18T18:09:44.940Z,49.24
2023-04-18T18:12:24.133Z,49.55
2023-04-18T18:14:54.896Z,50.03
2023-04-18T18:17:29.550Z,50.12
2023-04-18T18:20:00.231Z,50.49
2023-04-18T18:22:32.827Z,50.18
2023-04-18T18:25:02.569Z,50.00
2023-04-18T18:27:33.728Z,50.01
2023-04-18T18:30:06.172Z,50.21
2023-04-18T18:32:49.216Z,50.09
2023-04-18T18:35:23.158Z,50.38
2023-04-18T18:37:59.069Z,49.91
2023-04-18T18:40:38.404Z,49.70
2023-04-18T18:43:09.125Z,49.55
2023-04-18T18:45:42.399Z,49.38
2023-04-18T18:48:19.337Z,49.35
2023-04-18T18:50:54.184Z,49.31
2023-04-18T18:53:30.730Z,49.25
2023-04-18T18:56:04.026Z,49.25
2023-04-18T18:58:37.562Z,49.24
2023-04-18T19:01:09.940Z,49.19
2023-04-18T19:03:43.989Z,48.28
2023-04-18T19:06:12.453Z,48.81
2023-04-18T19:08:40.682Z,49.05
2023-04-18T19:11:14.201Z,49.04
2023-04-18T19:13:47.627Z,49.39
2023-04-18T19:16:20.013Z,49.02
2023-04-18T19:18:56.774Z,49.18
2023-04-18T19:21:24.593Z,48.96
2023-04-18T19:23:56.988Z,48.71
2023-04-18T19:26:31.774Z,48.62
2023-04-18T19:29:01.403Z,48.66
2023-04-18T19:31:35.307Z,48.54
2023-04-18T19:34:06.117Z,48.45
2023-04-18T19:36:43.502Z,48.57
2023-04-18T19:39:13.570Z,48.68
2023-04-18T19:41:48.596Z,48.75
2023-04-18T19:44:20.080Z,48.78
2023-04-18T19:46:51.996Z,48.86
2023-04-18T19:49:22.755Z,48.79
2023-04-18T19:51:53.190Z,48.75
2023-04-18T19:54:23.662Z,48.67
2023-04-18T19:56:59.517Z,48.67
2023-04-18T19:59:31.666Z,48.70
2023-04-18T20:02:05.069Z,48.69
2023-04-18T20:04:38.298Z,48.73
2023-04-18T20:07:20.023Z,48.76
2023-04-18T20:09:53.511Z,48.73
2023-04-18T20:12:33.342Z,48.70
2023-04-18T20:15:09.865Z,48.72
2023-04-18T20:17:46.664Z,48.74
2023-04-18T20:20:17.332Z,48.93
2023-04-18T20:22:47.025Z,48.78
2023-04-18T20:25:22.366Z,48.80
2023-04-18T20:27:55.775Z,48.79
2023-04-18T20:30:26.284Z,48.73
2023-04-18T20:32:59.123Z,48.89
2023-04-18T20:35:30.927Z,48.91
2023-04-18T20:38:00.928Z,48.92
2023-04-18T20:40:28.766Z,48.96
2023-04-18T20:42:58.621Z,49.00
2023-04-18T20:45:34.002Z,49.02
2023-04-18T20:48:04.739Z,49.00
2023-04-18T20:50:41.547Z,49.03
2023-04-18T20:53:19.697Z,49.06
2023-04-18T20:55:49.850Z,49.05
2023-04-18T20:58:16.866Z,49.10
2023-04-18T21:00:47.113Z,49.16
2023-04-18T21:03:17.716Z,49.15
2023-04-18T21:05:47.983Z,49.11
2023-04-18T21:08:26.630Z,49.10
2023-04-18T21:11:04.242Z,49.14
2023-04-18T21:13:43.896Z,49.17
2023-04-18T21:16:17.257Z,49.10
2023-04-18T21:18:44.302Z,49.13
2023-04-18T21:21:16.131Z,49.16
2023-04-18T21:23:45.780Z,49.20
2023-04-18T21:26:16.609Z,49.22
2023-04-18T21:29:02.850Z,49.23
2023-04-18T21:31:39.802Z,49.25
2023-04-18T21:34:14.053Z,49.25
2023-04-18T21:36:48.114Z,49.23
2023-04-18T21:39:18.259Z,49.23
2023-04-18T21:41:45.897Z,49.33
2023-04-18T21:44:19.270Z,49.28
2023-04-18T21:46:46.679Z,49.35
2023-04-18T21:49:26.475Z,49.31
2023-04-18T21:52:00.052Z,49.27
2023-04-18T21:54:30.568Z,49.28
2023-04-18T21:57:01.289Z,49.30
2023-04-18T21:59:29.099Z,49.43
2023-04-18T22:01:59.387Z,49.28
2023-04-18T22:04:35.587Z,49.17
2023-04-18T22:07:02.541Z,49.07
2023-04-18T22:09:40.948Z,48.99
2023-04-18T22:12:11.124Z,49.02
2023-04-18T22:14:48.983Z,49.08
2023-04-18T22:17:23.046Z,48.98
2023-04-18T22:19:53.938Z,48.98
2023-04-18T22:22:27.648Z,49.00
2023-04-18T22:24:55.266Z,49.07
2023-04-18T22:27:25.975Z,49.01
2023-04-18T22:29:56.260Z,49.13
2023-04-18T22:32:32.487Z,49.17
2023-04-18T22:35:06.113Z,49.19
2023-04-18T22:37:37.182Z,49.22
2023-04-18T22:40:07.706Z,49.22
2023-04-18T22:42:41.114Z,49.19
2023-04-18T22:45:12.810Z,49.23
2023-04-18T22:47:43.424Z,49.28
2023-04-18T22:50:11.142Z,49.28
2023-04-18T22:52:40.065Z,49.24
2023-04-18T22:55:12.406Z,49.29
2023-04-18T22:57:40.199Z,49.29
2023-04-18T23:00:14.317Z,49.26
2023-04-18T23:02:44.450Z,49.31
2023-04-18T23:05:18.091Z,49.28
2023-04-18T23:07:54.325Z,49.33
2023-04-18T23:10:24.441Z,49.30
2023-04-18T23:12:52.774Z,49.36
2023-04-18T23:15:22.201Z,49.39
2023-04-18T23:17:54.154Z,49.32
2023-04-18T23:20:25.006Z,49.28
2023-04-18T23:22:55.072Z,49.32
2023-04-18T23:25:25.668Z,49.31
2023-04-18T23:28:01.479Z,49.37
2023-04-18T23:30:35.810Z,49.34
2023-04-18T23:33:06.082Z,49.38
2023-04-18T23:35:36.809Z,49.38
2023-04-18T23:38:04.033Z,49.40
2023-04-18T23:40:34.734Z,49.35
2023-04-18T23:43:06.248Z,49.41
2023-04-18T23:45:36.476Z,49.42
2023-04-18T23:48:04.101Z,49.40
2023-04-18T23:50:35.807Z,49.44
2023-04-18T23:53:10.226Z,49.36
2023-04-18T23:55:40.621Z,49.35
2023-04-18T23:58:11.811Z,49.39
